createdAt,value
2023-03-19T00:00:43.139Z,9.70
2023-03-19T00:03:10.018Z,9.80
2023-03-19T00:05:36.894Z,9.80
2023-03-19T00:08:03.912Z,9.90
2023-03-19T00:10:31.065Z,9.90
2023-03-19T00:12:57.799Z,9.90
2023-03-19T00:15:24.552Z,10.00
2023-03-19T00:17:51.642Z,10.00
2023-03-19T00:20:19.876Z,10.10
2023-03-19T00:22:46.707Z,10.10
2023-03-19T00:25:13.761Z,10.10
2023-03-19T00:27:40.650Z,10.10
2023-03-19T00:30:09.029Z,10.20
2023-03-19T00:32:36.998Z,10.20
2023-03-19T00:35:06.393Z,10.20
2023-03-19T00:37:33.655Z,10.20
2023-03-19T00:40:00.437Z,10.20
2023-03-19T00:42:27.216Z,10.20
2023-03-19T00:44:54.029Z,10.20
2023-03-19T00:47:21.271Z,10.20
2023-03-19T00:49:48.102Z,10.20
2023-03-19T00:52:14.932Z,10.20
2023-03-19T00:54:42.032Z,10.10
2023-03-19T00:57:09.365Z,10.10
2023-03-19T00:59:36.113Z,10.10
2023-03-19T01:02:03.796Z,10.00
2023-03-19T01:04:30.795Z,9.90
2023-03-19T01:09:25.592Z,9.80
2023-03-19T01:11:52.536Z,9.70
2023-03-19T01:14:19.309Z,9.70
2023-03-19T01:16:46.294Z,9.70
2023-03-19T01:19:13.594Z,9.60
2023-03-19T01:21:40.478Z,9.60
2023-03-19T01:24:07.233Z,9.70
2023-03-19T01:26:34.025Z,9.70
2023-03-19T01:29:00.803Z,9.60
2023-03-19T01:31:27.689Z,9.70
2023-03-19T01:33:54.506Z,9.80
2023-03-19T01:36:21.321Z,9.80
2023-03-19T01:38:48.277Z,9.80
2023-03-19T01:41:15.345Z,9.90
2023-03-19T01:43:42.138Z,10.10
2023-03-19T01:46:15.810Z,10.20
2023-03-19T01:48:49.988Z,10.30
2023-03-19T01:51:20.738Z,10.40
2023-03-19T01:53:55.926Z,10.40
2023-03-19T01:56:34.700Z,10.40
2023-03-19T01:59:09.472Z,10.50
2023-03-19T02:01:42.325Z,10.50
2023-03-19T02:04:09.757Z,10.50
2023-03-19T02:06:37.735Z,10.40
2023-03-19T02:09:04.711Z,10.40
2023-03-19T02:11:32.224Z,10.40
2023-03-19T02:13:58.979Z,10.50
2023-03-19T02:16:27.166Z,10.50
2023-03-19T02:18:54.295Z,10.60
2023-03-19T02:21:22.128Z,10.50
2023-03-19T02:24:22.972Z,10.60
2023-03-19T02:26:50.712Z,10.60
2023-03-19T02:29:17.620Z,10.60
2023-03-19T02:31:44.406Z,10.60
2023-03-19T02:34:14.333Z,10.60
2023-03-19T02:36:48.953Z,10.50
2023-03-19T02:39:23.840Z,10.50
2023-03-19T02:41:53.286Z,10.40
2023-03-19T02:44:20.790Z,10.40
2023-03-19T02:46:47.685Z,10.50
2023-03-19T02:49:15.287Z,10.50
2023-03-19T02:51:42.156Z,10.50
2023-03-19T02:54:08.932Z,10.50
2023-03-19T02:56:35.826Z,10.60
2023-03-19T02:59:03.026Z,10.60
2023-03-19T03:01:30.080Z,10.70
2023-03-19T03:03:57.150Z,10.60
2023-03-19T03:06:23.951Z,10.60
2023-03-19T03:08:50.651Z,10.50
2023-03-19T03:11:17.488Z,10.30
2023-03-19T03:13:44.644Z,10.20
2023-03-19T03:16:11.550Z,10.10
2023-03-19T03:18:38.322Z,10.10
2023-03-19T03:21:05.249Z,10.20
2023-03-19T03:23:31.991Z,10.20
2023-03-19T03:25:58.759Z,10.20
2023-03-19T03:28:25.552Z,10.20
2023-03-19T03:30:57.992Z,10.30
2023-03-19T03:33:25.392Z,10.20
2023-03-19T03:35:52.501Z,10.20
2023-03-19T03:38:19.249Z,10.10
2023-03-19T03:40:46.064Z,10.10
2023-03-19T03:43:12.761Z,10.00
2023-03-19T03:45:39.551Z,9.90
2023-03-19T03:48:06.494Z,9.90
2023-03-19T03:50:33.603Z,9.80
2023-03-19T03:53:01.020Z,9.80
2023-03-19T03:55:28.312Z,9.90
2023-03-19T03:57:55.051Z,9.90
2023-03-19T04:00:22.039Z,10.00
2023-03-19T04:02:48.818Z,10.00
2023-03-19T04:05:16.429Z,10.10
2023-03-19T04:07:43.440Z,10.20
2023-03-19T04:10:12.002Z,10.20
2023-03-19T04:12:39.943Z,10.20
2023-03-19T04:15:09.139Z,10.30
2023-03-19T04:17:35.874Z,10.30
2023-03-19T04:20:05.504Z,10.40
2023-03-19T04:22:33.524Z,10.40
2023-03-19T04:25:00.576Z,10.40
2023-03-19T04:27:27.620Z,10.40
2023-03-19T04:29:54.840Z,10.50
2023-03-19T04:32:21.847Z,10.40
2023-03-19T04:34:48.644Z,10.30
2023-03-19T04:37:15.497Z,10.40
2023-03-19T04:39:42.347Z,10.40
2023-03-19T04:42:09.216Z,10.30
2023-03-19T04:44:36.636Z,10.30
2023-03-19T04:47:04.358Z,10.30
2023-03-19T04:49:31.506Z,10.30
2023-03-19T04:51:58.445Z,10.20
2023-03-19T04:54:25.844Z,10.10
2023-03-19T04:56:53.270Z,10.20
2023-03-19T04:59:22.578Z,10.30
2023-03-19T05:01:49.816Z,10.30
2023-03-19T05:04:17.812Z,10.30
2023-03-19T05:06:44.713Z,10.40
2023-03-19T05:09:11.503Z,10.40
2023-03-19T05:11:38.314Z,10.40
2023-03-19T05:14:05.685Z,10.40
2023-03-19T05:16:33.064Z,10.40
2023-03-19T05:18:59.743Z,10.50
2023-03-19T05:21:26.788Z,10.50
2023-03-19T05:23:54.772Z,10.50
2023-03-19T05:26:21.783Z,10.50
2023-03-19T05:28:48.601Z,10.40
2023-03-19T05:31:15.544Z,10.40
2023-03-19T05:33:42.396Z,10.40
2023-03-19T05:36:09.334Z,10.40
2023-03-19T05:38:36.428Z,10.40
2023-03-19T05:41:07.328Z,10.50
2023-03-19T05:43:34.120Z,10.50
2023-03-19T05:46:01.736Z,10.50
2023-03-19T05:48:28.466Z,10.60
2023-03-19T05:50:55.405Z,10.60
2023-03-19T05:53:23.112Z,10.60
2023-03-19T05:55:49.917Z,10.70
2023-03-19T05:58:17.036Z,10.70
2023-03-19T06:00:44.047Z,10.70
2023-03-19T06:03:11.140Z,10.70
2023-03-19T06:05:38.168Z,10.70
2023-03-19T06:08:05.635Z,10.70
2023-03-19T06:10:34.376Z,10.70
2023-03-19T06:13:01.296Z,10.70
2023-03-19T06:15:28.086Z,10.70
2023-03-19T06:17:54.828Z,10.70
2023-03-19T06:20:21.928Z,10.70
2023-03-19T06:22:48.688Z,10.70
2023-03-19T06:25:16.127Z,10.70
2023-03-19T06:27:42.875Z,10.70
2023-03-19T06:30:10.436Z,10.70
2023-03-19T06:32:37.274Z,10.70
2023-03-19T06:35:04.798Z,10.70
2023-03-19T06:37:31.644Z,10.80
2023-03-19T06:39:58.782Z,10.80
2023-03-19T06:42:25.699Z,10.80
2023-03-19T06:44:53.743Z,10.80
2023-03-19T06:47:20.640Z,10.70
2023-03-19T06:49:47.473Z,10.80
2023-03-19T06:52:14.545Z,10.80
2023-03-19T06:54:45.463Z,10.80
2023-03-19T06:57:12.256Z,10.80
2023-03-19T06:59:38.969Z,10.80
2023-03-19T07:02:05.760Z,10.90
2023-03-19T07:04:32.648Z,10.90
2023-03-19T07:06:59.466Z,11.00
2023-03-19T07:09:27.328Z,11.00
2023-03-19T07:11:54.176Z,11.00
2023-03-19T07:14:20.905Z,11.00
2023-03-19T07:16:47.738Z,11.10
2023-03-19T07:19:14.464Z,11.10
2023-03-19T07:21:41.819Z,11.00
2023-03-19T07:24:08.763Z,11.10
2023-03-19T07:26:35.517Z,11.00
2023-03-19T07:29:02.698Z,11.10
2023-03-19T07:31:29.508Z,11.10
2023-03-19T07:33:56.994Z,11.00
2023-03-19T07:36:23.784Z,11.00
2023-03-19T07:38:51.002Z,11.00
2023-03-19T07:41:17.887Z,11.00
2023-03-19T07:43:44.623Z,11.00
2023-03-19T07:46:11.810Z,11.10
2023-03-19T07:48:38.619Z,11.10
2023-03-19T07:51:05.784Z,11.10
2023-03-19T07:53:32.635Z,11.20
2023-03-19T07:55:59.507Z,11.10
2023-03-19T07:58:27.032Z,11.20
2023-03-19T08:00:54.462Z,11.30
2023-03-19T08:03:21.343Z,11.30
2023-03-19T08:05:50.053Z,11.30
2023-03-19T08:08:17.479Z,11.30
2023-03-19T08:10:45.109Z,11.30
2023-03-19T08:13:11.848Z,11.30
2023-03-19T08:15:38.588Z,11.30
2023-03-19T08:18:06.261Z,11.30
2023-03-19T08:20:33.518Z,11.40
2023-03-19T08:23:00.434Z,11.50
2023-03-19T08:25:27.643Z,11.50
2023-03-19T08:27:54.479Z,11.50
2023-03-19T08:30:21.361Z,11.60
2023-03-19T08:32:49.269Z,11.70
2023-03-19T08:35:17.235Z,11.70
2023-03-19T08:37:44.065Z,11.80
2023-03-19T08:40:12.411Z,11.80
2023-03-19T08:42:44.445Z,11.80
2023-03-19T08:45:13.603Z,11.90
2023-03-19T08:47:41.238Z,11.90
2023-03-19T08:50:08.990Z,11.90
2023-03-19T08:52:35.899Z,12.00
2023-03-19T08:55:03.551Z,12.10
2023-03-19T08:57:32.205Z,12.20
2023-03-19T08:59:58.962Z,12.20
2023-03-19T09:02:25.979Z,12.30
2023-03-19T09:04:53.133Z,12.30
2023-03-19T09:07:20.104Z,12.30
2023-03-19T09:09:46.911Z,12.40
2023-03-19T09:12:16.835Z,12.40
2023-03-19T09:14:44.141Z,12.50
2023-03-19T09:17:11.690Z,12.60
2023-03-19T09:19:38.501Z,12.60
2023-03-19T09:22:05.364Z,12.60
2023-03-19T09:24:32.113Z,12.60
2023-03-19T09:26:58.847Z,12.70
2023-03-19T09:29:25.663Z,12.80
2023-03-19T09:31:52.556Z,12.70
2023-03-19T09:34:19.390Z,12.70
2023-03-19T09:36:46.492Z,12.70
2023-03-19T09:39:13.334Z,12.80
2023-03-19T09:42:01.188Z,12.70
2023-03-19T09:44:39.878Z,12.70
2023-03-19T09:47:31.359Z,12.70
2023-03-19T09:50:05.324Z,12.80
2023-03-19T09:52:32.336Z,12.80
2023-03-19T09:55:24.205Z,12.90
2023-03-19T09:57:56.358Z,12.90
2023-03-19T10:00:34.767Z,13.00
2023-03-19T10:03:30.971Z,13.00
2023-03-19T10:06:35.690Z,13.00
2023-03-19T10:09:21.453Z,13.20
2023-03-19T10:12:14.364Z,13.40
2023-03-19T10:15:02.317Z,13.70
2023-03-19T10:17:41.243Z,14.10
2023-03-19T10:20:47.388Z,14.50
2023-03-19T10:23:37.621Z,14.70
2023-03-19T10:26:09.264Z,14.90
2023-03-19T10:28:36.718Z,15.00
2023-03-19T10:31:29.836Z,15.10
2023-03-19T10:34:31.363Z,15.30
2023-03-19T10:37:12.568Z,15.60
2023-03-19T10:39:42.092Z,15.60
2023-03-19T10:42:41.295Z,15.50
2023-03-19T10:45:26.930Z,15.40
2023-03-19T10:47:56.099Z,15.30
2023-03-19T10:50:34.303Z,15.30
2023-03-19T10:53:22.052Z,15.30
2023-03-19T10:55:59.882Z,15.30
2023-03-19T10:58:29.653Z,15.40
2023-03-19T11:01:04.148Z,15.30
2023-03-19T11:03:38.292Z,15.40
2023-03-19T11:06:14.274Z,15.50
2023-03-19T11:08:41.138Z,15.60
2023-03-19T11:11:24.717Z,15.70
2023-03-19T11:13:51.726Z,15.90
2023-03-19T11:16:18.663Z,16.10
2023-03-19T11:18:49.581Z,16.00
2023-03-19T11:21:29.487Z,16.00
2023-03-19T11:24:01.269Z,16.00
2023-03-19T11:26:28.785Z,16.10
2023-03-19T11:29:02.567Z,16.20
2023-03-19T11:31:53.526Z,16.30
2023-03-19T11:34:59.297Z,16.30
2023-03-19T11:37:42.004Z,16.00
2023-03-19T11:40:20.545Z,16.10
2023-03-19T11:43:00.294Z,16.10
2023-03-19T11:45:33.587Z,16.10
2023-03-19T11:48:20.701Z,16.10
2023-03-19T11:51:01.207Z,15.80
2023-03-19T11:54:12.341Z,15.60
2023-03-19T11:56:55.734Z,15.60
2023-03-19T11:59:38.155Z,15.60
2023-03-19T12:02:27.405Z,15.90
2023-03-19T12:04:58.303Z,16.10
2023-03-19T12:07:50.963Z,16.10
2023-03-19T12:10:38.749Z,16.30
2023-03-19T12:13:27.190Z,16.30
2023-03-19T12:16:13.667Z,16.40
2023-03-19T12:18:59.814Z,16.50
2023-03-19T12:21:57.044Z,16.50
2023-03-19T12:24:42.414Z,16.60
2023-03-19T12:27:34.411Z,16.50
2023-03-19T12:30:13.360Z,16.00
2023-03-19T12:33:11.642Z,16.00
2023-03-19T12:35:41.021Z,16.10
2023-03-19T12:38:29.022Z,16.20
2023-03-19T12:41:03.780Z,16.30
2023-03-19T12:43:54.094Z,16.40
2023-03-19T12:46:24.863Z,16.40
2023-03-19T12:49:11.224Z,16.30
2023-03-19T12:51:49.499Z,16.20
2023-03-19T12:54:25.399Z,16.20
2023-03-19T12:57:11.331Z,16.10
2023-03-19T12:59:51.081Z,15.80
2023-03-19T13:02:40.998Z,15.90
2023-03-19T13:05:38.570Z,15.90
2023-03-19T13:08:21.083Z,16.00
2023-03-19T13:10:47.906Z,16.10
2023-03-19T13:13:39.313Z,16.10
2023-03-19T13:16:37.708Z,16.10
2023-03-19T13:19:41.967Z,16.20
2023-03-19T13:22:13.415Z,16.30
2023-03-19T13:24:44.265Z,16.00
2023-03-19T13:27:26.191Z,16.10
2023-03-19T13:29:56.315Z,16.30
2023-03-19T13:32:34.449Z,16.30
2023-03-19T13:35:49.233Z,16.40
2023-03-19T13:38:34.358Z,16.30
2023-03-19T13:41:02.059Z,16.30
2023-03-19T13:43:29.235Z,16.30
2023-03-19T13:46:17.555Z,16.10
2023-03-19T13:48:47.716Z,16.10
2023-03-19T13:51:21.873Z,16.10
2023-03-19T13:54:13.152Z,16.10
2023-03-19T13:57:18.567Z,16.10
2023-03-19T13:59:48.220Z,16.20
2023-03-19T14:02:25.362Z,16.20
2023-03-19T14:05:02.499Z,16.30
2023-03-19T14:07:38.455Z,16.30
2023-03-19T14:10:13.721Z,16.40
2023-03-19T14:12:42.871Z,16.50
2023-03-19T14:15:09.916Z,16.40
2023-03-19T14:17:48.589Z,16.40
2023-03-19T14:20:19.910Z,16.30
2023-03-19T14:23:09.225Z,16.20
2023-03-19T14:25:58.353Z,16.20
2023-03-19T14:28:34.208Z,16.20
2023-03-19T14:31:03.617Z,16.20
2023-03-19T14:33:42.085Z,16.30
2023-03-19T14:36:15.415Z,16.40
2023-03-19T14:38:56.772Z,16.20
2023-03-19T14:41:27.696Z,16.10
2023-03-19T14:44:23.179Z,16.00
2023-03-19T14:47:17.430Z,16.00
2023-03-19T14:50:15.570Z,15.80
2023-03-19T14:52:52.047Z,15.80
2023-03-19T14:55:18.943Z,15.90
2023-03-19T14:57:45.904Z,15.90
2023-03-19T15:00:18.423Z,15.90
2023-03-19T15:02:52.744Z,16.00
2023-03-19T15:05:33.209Z,16.10
2023-03-19T15:08:12.609Z,16.10
2023-03-19T15:11:02.509Z,16.00
2023-03-19T15:13:35.302Z,16.00
2023-03-19T15:16:19.904Z,15.90
2023-03-19T15:18:46.845Z,15.80
2023-03-19T15:21:13.889Z,15.90
2023-03-19T15:23:41.839Z,15.90
2023-03-19T15:26:11.788Z,15.90
2023-03-19T15:28:54.046Z,16.00
2023-03-19T15:31:37.507Z,15.80
2023-03-19T15:34:24.391Z,15.70
2023-03-19T15:37:15.484Z,15.70
2023-03-19T15:39:50.382Z,15.70
2023-03-19T15:42:19.774Z,15.70
2023-03-19T15:44:51.839Z,15.80
2023-03-19T15:47:23.297Z,15.70
2023-03-19T15:50:04.265Z,15.70
2023-03-19T15:52:38.390Z,15.80
2023-03-19T15:55:06.797Z,15.80
2023-03-19T15:57:36.849Z,15.90
2023-03-19T16:00:05.253Z,15.90
2023-03-19T16:02:34.015Z,16.00
2023-03-19T16:05:22.446Z,15.90
2023-03-19T16:08:00.408Z,15.80
2023-03-19T16:10:36.302Z,15.80
2023-03-19T16:13:20.675Z,15.80
2023-03-19T16:16:08.139Z,15.70
2023-03-19T16:18:53.074Z,15.60
2023-03-19T16:21:43.098Z,15.40
2023-03-19T16:24:24.176Z,15.30
2023-03-19T16:26:52.182Z,15.30
2023-03-19T16:29:29.897Z,15.20
2023-03-19T16:32:14.369Z,15.20
2023-03-19T16:34:50.169Z,15.10
2023-03-19T16:37:35.021Z,15.10
2023-03-19T16:40:23.591Z,15.00
2023-03-19T16:42:52.552Z,15.00
2023-03-19T16:45:30.553Z,14.90
2023-03-19T16:48:05.297Z,14.80
2023-03-19T16:50:40.380Z,14.80
2023-03-19T16:53:22.511Z,14.70
2023-03-19T16:55:49.877Z,14.60
2023-03-19T16:58:19.949Z,14.60
2023-03-19T17:00:47.817Z,14.60
2023-03-19T17:03:17.490Z,14.60
2023-03-19T17:05:46.204Z,14.50
2023-03-19T17:08:13.647Z,14.60
2023-03-19T17:10:44.756Z,14.50
2023-03-19T17:13:31.513Z,14.50
2023-03-19T17:16:04.986Z,14.50
2023-03-19T17:18:35.408Z,14.50
2023-03-19T17:21:16.999Z,14.50
2023-03-19T17:23:44.873Z,14.50
2023-03-19T17:26:28.371Z,14.60
2023-03-19T17:28:56.375Z,14.60
2023-03-19T17:31:29.601Z,14.40
2023-03-19T17:34:05.940Z,14.30
2023-03-19T17:36:33.682Z,14.10
2023-03-19T17:39:02.375Z,14.00
2023-03-19T17:41:30.461Z,13.90
2023-03-19T17:43:57.483Z,13.60
2023-03-19T17:46:27.552Z,13.50
2023-03-19T17:48:55.467Z,13.30
2023-03-19T17:51:25.975Z,13.20
2023-03-19T17:53:54.623Z,13.10
2023-03-19T17:56:25.387Z,13.10
2023-03-19T17:58:52.732Z,13.00
2023-03-19T18:01:24.610Z,13.00
2023-03-19T18:03:53.485Z,13.00
2023-03-19T18:06:22.773Z,13.00
2023-03-19T18:08:49.668Z,13.00
2023-03-19T18:11:16.602Z,13.10
2023-03-19T18:13:43.541Z,13.00
2023-03-19T18:16:30.480Z,12.90
2023-03-19T18:19:01.158Z,12.90
2023-03-19T18:21:29.185Z,12.80
2023-03-19T18:23:57.375Z,12.70
2023-03-19T18:26:25.421Z,12.70
2023-03-19T18:28:52.274Z,12.70
2023-03-19T18:31:22.893Z,12.70
2023-03-19T18:33:55.305Z,12.70
2023-03-19T18:36:26.835Z,12.70
2023-03-19T18:38:57.470Z,12.50
2023-03-19T18:41:26.230Z,12.50
2023-03-19T18:43:52.983Z,12.40
2023-03-19T18:46:30.893Z,12.40
2023-03-19T18:49:01.305Z,12.40
2023-03-19T18:51:28.566Z,12.30
2023-03-19T18:53:56.092Z,12.20
2023-03-19T18:56:26.315Z,12.30
2023-03-19T18:58:55.211Z,12.30
2023-03-19T19:01:23.110Z,12.40
2023-03-19T19:03:51.100Z,12.30
2023-03-19T19:06:45.879Z,12.40
2023-03-19T19:09:13.872Z,12.40
2023-03-19T19:11:43.919Z,12.40
2023-03-19T19:14:19.504Z,12.40
2023-03-19T19:16:46.480Z,12.30
2023-03-19T19:19:20.306Z,12.30
2023-03-19T19:21:47.056Z,12.30
2023-03-19T19:24:15.009Z,12.30
2023-03-19T19:26:46.697Z,12.30
2023-03-19T19:29:25.271Z,12.40
2023-03-19T19:31:53.423Z,12.50
2023-03-19T19:34:20.558Z,12.50
2023-03-19T19:36:47.392Z,12.60
2023-03-19T19:39:14.174Z,12.70
2023-03-19T19:41:43.719Z,12.70
2023-03-19T19:44:21.419Z,12.70
2023-03-19T19:46:48.409Z,12.70
2023-03-19T19:49:15.458Z,12.60
2023-03-19T19:51:42.284Z,12.60
2023-03-19T19:54:09.038Z,12.40
2023-03-19T19:56:37.343Z,12.30
2023-03-19T19:59:06.535Z,12.40
2023-03-19T20:01:33.353Z,12.40
2023-03-19T20:04:00.416Z,12.40
2023-03-19T20:06:27.654Z,12.40
2023-03-19T20:08:54.396Z,12.40
2023-03-19T20:11:23.974Z,12.30
2023-03-19T20:13:54.606Z,12.30
2023-03-19T20:16:24.402Z,12.40
2023-03-19T20:18:53.812Z,12.40
2023-03-19T20:21:21.601Z,12.40
2023-03-19T20:23:51.268Z,12.30
2023-03-19T20:26:21.946Z,12.40
2023-03-19T20:28:49.526Z,12.30
2023-03-19T20:31:38.596Z,12.40
2023-03-19T20:34:05.388Z,12.30
2023-03-19T20:36:32.362Z,12.30
2023-03-19T20:38:59.216Z,12.30
2023-03-19T20:41:27.289Z,12.30
2023-03-19T20:43:54.745Z,12.30
2023-03-19T20:46:23.335Z,12.30
2023-03-19T20:48:50.229Z,12.30
2023-03-19T20:51:25.044Z,12.30
2023-03-19T20:53:52.765Z,12.30
2023-03-19T20:56:22.546Z,12.30
2023-03-19T20:58:49.629Z,12.20
2023-03-19T21:01:17.842Z,12.30
2023-03-19T21:03:44.699Z,12.20
2023-03-19T21:06:23.029Z,12.20
2023-03-19T21:08:58.784Z,12.20
2023-03-19T21:11:40.890Z,12.20
2023-03-19T21:14:16.010Z,12.10
2023-03-19T21:16:42.963Z,12.10
2023-03-19T21:19:09.740Z,12.10
2023-03-19T21:21:38.803Z,12.10
2023-03-19T21:24:09.979Z,12.10
2023-03-19T21:26:39.150Z,12.10
2023-03-19T21:29:12.060Z,12.10
2023-03-19T21:31:38.799Z,12.10
2023-03-19T21:34:05.825Z,12.10
2023-03-19T21:36:32.524Z,12.10
2023-03-19T21:38:59.270Z,12.10
2023-03-19T21:41:35.879Z,12.10
2023-03-19T21:44:19.588Z,12.10
2023-03-19T21:46:47.803Z,12.10
2023-03-19T21:49:15.321Z,12.10
2023-03-19T21:51:44.949Z,12.00
2023-03-19T21:54:11.982Z,12.00
2023-03-19T21:56:44.948Z,12.00
2023-03-19T21:59:33.872Z,12.00
2023-03-19T22:02:00.714Z,12.00
2023-03-19T22:04:27.502Z,12.00
2023-03-19T22:06:54.289Z,11.90
2023-03-19T22:09:21.518Z,11.80
2023-03-19T22:11:48.454Z,11.90
2023-03-19T22:14:19.357Z,11.80
2023-03-19T22:16:47.515Z,11.80
2023-03-19T22:19:16.332Z,11.80
2023-03-19T22:21:43.638Z,11.80
2023-03-19T22:24:10.730Z,11.70
2023-03-19T22:26:40.543Z,11.80
2023-03-19T22:29:20.342Z,11.80
2023-03-19T22:31:52.152Z,11.80
2023-03-19T22:34:22.212Z,11.70
2023-03-19T22:36:49.496Z,11.70
2023-03-19T22:39:16.368Z,11.70
2023-03-19T22:41:47.820Z,11.70
2023-03-19T22:44:27.925Z,11.70
2023-03-19T22:46:56.491Z,11.70
2023-03-19T22:49:24.747Z,11.60
2023-03-19T22:51:51.837Z,11.60
2023-03-19T22:54:18.632Z,11.60
2023-03-19T22:56:45.549Z,11.40
2023-03-19T22:59:12.345Z,11.40
2023-03-19T23:01:42.015Z,11.40
2023-03-19T23:04:23.819Z,11.40
2023-03-19T23:06:51.892Z,11.30
2023-03-19T23:09:21.875Z,11.40
2023-03-19T23:11:48.789Z,11.30
2023-03-19T23:14:28.504Z,11.40
2023-03-19T23:19:32.765Z,11.40
2023-03-19T23:22:01.264Z,11.40
2023-03-19T23:24:28.159Z,11.40
2023-03-19T23:26:57.448Z,11.40
2023-03-19T23:29:35.309Z,11.30
2023-03-19T23:32:03.384Z,11.40
2023-03-19T23:34:30.414Z,11.30
2023-03-19T23:36:58.086Z,11.30
2023-03-19T23:39:25.667Z,11.40
2023-03-19T23:41:56.862Z,11.40
2023-03-19T23:44:23.730Z,11.30
2023-03-19T23:46:52.174Z,11.30
2023-03-19T23:49:30.855Z,11.20
2023-03-19T23:51:57.976Z,11.20
2023-03-19T23:54:28.276Z,11.20
2023-03-19T23:56:58.371Z,11.20
2023-03-19T23:59:26.716Z,11.20
